createdAt,value
2022-11-25T00:06:46.741Z,0
2022-11-25T00:16:23.708Z,0
2022-11-25T00:26:00.104Z,0
2022-11-25T00:35:36.488Z,0
2022-11-25T00:45:13.183Z,0
2022-11-25T00:54:50.292Z,0
2022-11-25T01:14:03.815Z,0
2022-11-25T01:23:40.614Z,0
2022-11-25T01:33:17.444Z,0
2022-11-25T01:42:54.196Z,0
2022-11-25T01:52:30.228Z,0
2022-11-25T02:02:07.161Z,0
2022-11-25T02:21:20.064Z,0
2022-11-25T02:30:56.487Z,0
2022-11-25T02:40:33.050Z,0
2022-11-25T02:50:09.203Z,0
2022-11-25T03:09:22.263Z,0
2022-11-25T03:28:36.257Z,0
2022-11-25T03:47:49.832Z,0
2022-11-25T04:07:03.627Z,0
2022-11-25T04:16:40.046Z,0
2022-11-25T04:26:16.173Z,0
2022-11-25T04:35:53.179Z,0
2022-11-25T04:45:36.890Z,0
2022-11-25T05:14:19.204Z,0
2022-11-25T05:23:56.361Z,0
2022-11-25T05:33:32.724Z,0
2022-11-25T05:43:09.341Z,0
2022-11-25T05:52:45.799Z,0
2022-11-25T06:11:59.408Z,0
2022-11-25T06:21:35.936Z,0
2022-11-25T06:31:12.419Z,0
2022-11-25T06:40:49.140Z,5.63
2022-11-25T07:00:02.622Z,22.5
2022-11-25T07:09:39.529Z,33.75
2022-11-25T07:19:16.592Z,50.63
2022-11-25T07:28:53.552Z,67.5
2022-11-25T07:38:30.542Z,78.75
2022-11-25T07:48:08.021Z,84.38
2022-11-25T08:07:23.581Z,106.88
2022-11-25T08:26:38.454Z,118.13
2022-11-25T08:36:15.815Z,157.5
2022-11-25T08:45:53.558Z,174.38
2022-11-25T08:55:31.263Z,202.5
2022-11-25T09:05:09.059Z,241.88
2022-11-25T09:14:47.578Z,253.13
2022-11-25T09:24:25.162Z,219.38
2022-11-25T09:43:39.705Z,225
2022-11-25T09:53:17.035Z,258.75
2022-11-25T10:02:54.801Z,264.38
2022-11-25T10:12:32.065Z,286.88
2022-11-25T10:22:10.139Z,281.25
2022-11-25T10:31:46.726Z,225
2022-11-25T10:41:23.270Z,208.13
2022-11-25T10:51:01.105Z,315
2022-11-25T11:00:40.595Z,489.38
2022-11-25T11:10:19.925Z,354.38
2022-11-25T11:29:32.668Z,236.25
2022-11-25T11:39:11.759Z,326.25
2022-11-25T11:48:53.054Z,225
2022-11-25T11:58:25.087Z,163.13
2022-11-25T12:08:01.665Z,157.5
2022-11-25T12:17:38.137Z,180
2022-11-25T12:27:15.366Z,168.75
2022-11-25T12:36:52.395Z,191.25
2022-11-25T12:46:29.750Z,163.13
2022-11-25T13:05:44.566Z,151.88
2022-11-25T13:15:21.504Z,106.88
2022-11-25T13:24:57.179Z,67.5
2022-11-25T13:34:33.960Z,67.5
2022-11-25T13:44:10.770Z,73.13
2022-11-25T13:53:47.476Z,33.75
2022-11-25T14:13:00.965Z,22.5
2022-11-25T14:22:37.724Z,11.25
2022-11-25T14:32:14.302Z,11.25
2022-11-25T14:51:27.903Z,5.63
2022-11-25T15:01:05.230Z,0
2022-11-25T15:10:41.647Z,0
2022-11-25T15:20:19.110Z,0
2022-11-25T15:29:56.120Z,0
2022-11-25T15:39:33.023Z,0
2022-11-25T15:49:09.872Z,0
2022-11-25T15:58:46.834Z,0
2022-11-25T16:08:23.376Z,0
2022-11-25T16:18:17.837Z,0
2022-11-25T16:27:36.422Z,0
2022-11-25T16:37:13.262Z,0
2022-11-25T16:46:50.037Z,0
2022-11-25T16:56:25.798Z,0
2022-11-25T17:06:02.290Z,0
2022-11-25T17:15:39.187Z,0
2022-11-25T17:25:15.179Z,0
2022-11-25T17:34:51.822Z,0
2022-11-25T17:44:28.154Z,0
2022-11-25T17:54:05.009Z,0
2022-11-25T18:13:19.258Z,0
2022-11-25T18:22:56.191Z,0
2022-11-25T18:32:32.996Z,0
2022-11-25T18:42:10.058Z,0
2022-11-25T18:51:46.915Z,0
2022-11-25T19:01:24.015Z,0
2022-11-25T19:11:01.065Z,0
2022-11-25T19:20:37.674Z,0
2022-11-25T19:30:14.431Z,0
2022-11-25T19:39:51.168Z,0
2022-11-25T19:49:27.518Z,0
2022-11-25T20:08:41.010Z,0
2022-11-25T20:18:18.612Z,0
2022-11-25T20:27:55.518Z,0
2022-11-25T20:37:32.619Z,0
2022-11-25T20:47:09.336Z,0
2022-11-25T20:56:46.184Z,0
2022-11-25T21:06:23.395Z,0
2022-11-25T21:15:59.839Z,0
2022-11-25T21:25:36.512Z,0
2022-11-25T21:35:12.901Z,0
2022-11-25T21:44:49.540Z,0
2022-11-25T21:54:26.612Z,0
2022-11-25T22:04:03.380Z,0
2022-11-25T22:23:18.316Z,0
2022-11-25T22:32:55.346Z,0
2022-11-25T22:42:32.193Z,0
2022-11-25T23:01:46.251Z,0
2022-11-25T23:11:22.832Z,0
2022-11-25T23:21:00.189Z,0
2022-11-25T23:30:37.515Z,0
2022-11-25T23:49:51.704Z,0
2022-11-25T23:59:31.047Z,0
